Time;durP1;ratioP1;P1;durP2;ratioP2;P2;SDS_P1;SDS_P2;PMS_P1;PMS_P2;Temp;Humidity;BMP_temperature;BMP_pressure;BME280_temperature;BME280_humidity;BME280_pressure;Samples;Min_cycle;Max_cycle;Signal;HPM_P1;HPM_P2
2022/11/23 06:00:47;;;;;;;4.80;1.90;;;;;;;5.60;nan;98181.97;6097902;23;20204;-94
2022/11/23 06:03:25;;;;;;;5.72;1.70;;;;;;;5.60;nan;98179.34;6049826;23;20437;-93
2022/11/23 06:05:58;;;;;;;4.82;2.25;;;;;;;5.58;nan;98178.63;6054770;23;20271;-93
2022/11/23 06:08:59;;;;;;;;;;;;;;;;;;;;;
2022/11/23 06:11:29;;;;;;;8.43;1.92;;;;;;;5.52;nan;98185.06;6057668;23;20711;-93
2022/11/23 06:14:11;;;;;;;5.32;1.60;;;;;;;5.49;nan;98174.84;6059546;23;20186;-93
2022/11/23 06:16:50;;;;;;;5.80;2.20;;;;;;;5.45;nan;98189.00;6091882;23;20200;-94
2022/11/23 06:19:47;;;;;;;3.63;2.08;;;;;;;5.38;nan;98183.38;6092029;23;20180;-93
2022/11/23 06:22:28;;;;;;;7.85;2.38;;;;;;;5.37;nan;98179.06;6083573;23;20271;-93
2022/11/23 06:25:03;;;;;;;3.72;1.90;;;;;;;5.34;nan;98187.09;6083665;23;20224;-94
2022/11/23 06:28:03;;;;;;;3.90;2.13;;;;;;;5.32;nan;98181.19;6033711;23;20680;-93
2022/11/23 06:30:37;;;;;;;4.85;2.28;;;;;;;5.31;nan;98179.47;6059488;23;20521;-93
2022/11/23 06:33:36;;;;;;;4.30;2.22;;;;;;;5.29;nan;98178.75;6067121;23;20211;-93
2022/11/23 06:36:11;;;;;;;8.23;2.47;;;;;;;5.26;nan;98181.56;6073838;23;20138;-94
2022/11/23 06:38:46;;;;;;;3.42;2.72;;;;;;;5.19;nan;98178.53;6054459;23;20550;-91
2022/11/23 06:41:27;;;;;;;5.60;2.72;;;;;;;5.16;nan;98177.88;6055985;23;20251;-93
2022/11/23 06:44:16;;;;;;;;;;;;;;;;;;;;;
2022/11/23 06:47:08;;;;;;;6.13;2.22;;;;;;;5.12;nan;98181.63;6084768;23;20224;-93
2022/11/23 06:50:24;;;;;;;6.45;4.03;;;;;;;5.12;nan;98187.66;6071578;23;20169;-92
2022/11/23 06:53:16;;;;;;;;;;;;;;;;;;;;;
2022/11/23 06:56:24;;;;;;;;;;;;;;;;;;;;;
2022/11/23 06:59:02;;;;;;;18.52;7.20;;;;;;;5.07;nan;98189.72;6085851;23;20149;-93
2022/11/23 07:02:18;;;;;;;;;;;;;;;;;;;;;
2022/11/23 07:05:32;;;;;;;11.13;6.03;;;;;;;4.99;nan;98187.59;6083741;23;20216;-93
2022/11/23 07:11:41;;;;;;;7.85;4.75;;;;;;;4.85;nan;98185.88;6074959;23;20169;-92
2022/11/23 07:14:32;;;;;;;;;;;;;;;;;;;;;
2022/11/23 07:17:30;;;;;;;4.55;4.05;;;;;;;4.84;nan;98197.22;6082012;23;20204;-93
2022/11/23 07:20:21;;;;;;;10.00;4.65;;;;;;;4.90;nan;98190.78;6059680;23;20172;-92
2022/11/23 07:23:39;;;;;;;;;;;;;;;;;;;;;
2022/11/23 07:26:54;;;;;;;7.25;6.45;;;;;;;4.81;nan;98193.97;6056144;23;20185;-93
2022/11/23 07:29:52;;;;;;;6.60;5.97;;;;;;;4.76;nan;98185.63;6057541;23;20239;-94
2022/11/23 07:32:40;;;;;;;8.80;5.38;;;;;;;4.79;nan;98195.84;6081793;23;20247;-93
2022/11/23 07:35:29;;;;;;;8.73;6.03;;;;;;;4.84;nan;98201.59;6048518;23;20168;-94
2022/11/23 07:38:06;;;;;;;;;;;;;;;;;;;;;
2022/11/23 07:41:02;;;;;;;7.45;6.60;;;;;;;5.00;nan;98189.28;6056334;23;20167;-93
2022/11/23 07:44:00;;;;;;;12.93;7.00;;;;;;;5.06;nan;98194.09;6049320;23;20276;-93
2022/11/23 07:46:47;;;;;;;10.77;7.80;;;;;;;5.15;nan;98194.44;6082635;23;20224;-94
2022/11/23 07:49:26;;;;;;;9.38;7.20;;;;;;;5.22;nan;98193.94;6080045;23;21046;-93
2022/11/23 07:52:22;;;;;;;20.30;7.78;;;;;;;5.30;nan;98196.06;6081061;23;20165;-93
2022/11/23 07:54:55;;;;;;;14.75;7.45;;;;;;;5.36;nan;98182.63;6081257;23;20232;-93
2022/11/23 07:57:52;;;;;;;;;;;;;;;;;;;;;
2022/11/23 08:00:43;;;;;;;;;;;;;;;;;;;;;
2022/11/23 08:03:21;;;;;;;9.48;6.40;;;;;;;5.55;nan;98190.91;6049765;23;20237;-93
2022/11/23 08:06:28;;;;;;;;;;;;;;;;;;;;;
2022/11/23 08:09:06;;;;;;;;;;;;;;;;;;;;;
2022/11/23 08:11:45;;;;;;;10.15;6.00;;;;;;;5.77;nan;98179.88;6049038;23;20252;-93
2022/11/23 08:14:11;;;;;;;8.88;6.45;;;;;;;5.84;nan;98175.13;6044594;23;20172;-93
2022/11/23 08:16:55;;;;;;;11.32;5.80;;;;;;;5.91;nan;98176.38;6046113;23;20849;-93
2022/11/23 08:19:23;;;;;;;16.17;7.75;;;;;;;5.97;nan;98181.19;6016582;23;20170;-93
2022/11/23 08:21:52;;;;;;;9.30;6.03;;;;;;;6.05;nan;98185.03;6048237;23;20166;-93
2022/11/23 08:24:38;;;;;;;10.20;6.88;;;;;;;6.13;nan;98185.34;6050421;23;20267;-94
2022/11/23 08:27:40;;;;;;;10.32;6.65;;;;;;;6.22;nan;98183.91;6019304;23;20550;-93
2022/11/23 08:30:21;;;;;;;10.60;6.22;;;;;;;6.32;nan;98183.19;6057660;23;20204;-93
2022/11/23 08:33:18;;;;;;;7.18;5.00;;;;;;;6.52;nan;98184.38;6040747;23;20656;-93
2022/11/23 08:36:04;;;;;;;;;;;;;;;;;;;;;
2022/11/23 08:38:45;;;;;;;7.18;4.38;;;;;;;9.08;nan;98170.41;6010193;23;20171;-94
2022/11/23 08:41:26;;;;;;;5.20;3.92;;;;;;;10.83;nan;98165.41;6013752;23;20321;-94
2022/11/23 08:44:04;;;;;;;4.57;3.60;;;;;;;12.36;nan;98159.38;6012922;23;20159;-94
2022/11/23 08:46:42;;;;;;;6.60;2.80;;;;;;;13.82;nan;98158.44;6013935;23;20182;-92
2022/11/23 08:49:10;;;;;;;3.85;2.20;;;;;;;14.99;nan;98155.28;6011040;23;20245;-94
2022/11/23 08:51:38;;;;;;;4.22;2.88;;;;;;;15.91;nan;98155.22;6012224;23;20650;-92
2022/11/23 08:54:13;;;;;;;3.30;2.38;;;;;;;16.80;nan;98145.41;6009792;23;20272;-92
2022/11/23 08:56:41;;;;;;;7.47;2.88;;;;;;;17.58;nan;98141.75;6035024;23;20153;-92
2022/11/23 08:59:34;;;;;;;8.63;3.28;;;;;;;18.29;nan;98142.28;6039728;23;20146;-92
2022/11/23 09:02:07;;;;;;;6.53;2.47;;;;;;;18.77;nan;98155.22;6052997;23;20297;-92
2022/11/23 09:04:55;;;;;;;;;;;;;;;;;;;;;
2022/11/23 09:07:40;;;;;;;4.32;2.65;;;;;;;19.45;nan;98150.44;6066252;23;20195;-91
2022/11/23 09:10:14;;;;;;;6.30;2.35;;;;;;;18.94;nan;98145.19;6068945;23;20155;-92
2022/11/23 09:12:51;;;;;;;5.70;3.20;;;;;;;18.45;nan;98146.59;6067400;23;20236;-92
2022/11/23 09:15:28;;;;;;;7.55;3.58;;;;;;;17.76;nan;98154.69;6072475;23;20142;-93
2022/11/23 09:17:55;;;;;;;5.03;4.55;;;;;;;16.83;nan;98158.31;6069805;23;20153;-93
2022/11/23 09:20:35;;;;;;;5.30;3.47;;;;;;;15.90;nan;98158.84;6068208;23;20150;-93
2022/11/23 09:23:10;;;;;;;10.70;4.72;;;;;;;14.92;nan;98164.81;6070273;23;20631;-93
2022/11/23 09:25:59;;;;;;;4.78;3.08;;;;;;;14.15;nan;98167.41;6043087;23;20563;-92
2022/11/23 09:28:46;;;;;;;5.53;3.30;;;;;;;13.57;nan;98175.06;6068386;23;20184;-92
2022/11/23 09:31:28;;;;;;;;;;;;;;;;;;;;;
2022/11/23 09:34:01;;;;;;;3.60;2.33;;;;;;;13.59;nan;98155.47;6073361;23;20151;-92
2022/11/23 09:36:46;;;;;;;;;;;;;;;;;;;;;
2022/11/23 09:39:18;;;;;;;3.28;2.67;;;;;;;13.66;nan;98163.59;6067637;23;20195;-92
2022/11/23 09:42:12;;;;;;;3.55;2.30;;;;;;;14.63;nan;98159.94;6069716;23;20391;-91
2022/11/23 09:44:58;;;;;;;;;;;;;;;;;;;;;
2022/11/23 09:47:52;;;;;;;2.90;2.40;;;;;;;16.17;nan;98154.19;6063373;23;20176;-93
2022/11/23 09:50:51;;;;;;;;;;;;;;;;;;;;;
2022/11/23 09:53:24;;;;;;;5.22;2.05;;;;;;;16.20;nan;98156.47;6065990;23;20187;-92
2022/11/23 09:55:56;;;;;;;8.38;2.63;;;;;;;15.84;nan;98163.00;6065766;23;20153;-92
2022/11/23 09:58:29;;;;;;;4.13;1.60;;;;;;;15.47;nan;98161.66;6066584;23;20638;-92
2022/11/23 10:01:06;;;;;;;2.60;2.10;;;;;;;15.15;nan;98159.78;6055443;23;20149;-91
2022/11/23 10:03:45;;;;;;;3.35;2.90;;;;;;;14.77;nan;98155.84;6064532;23;20141;-92
2022/11/23 10:07:09;;;;;;;4.57;1.95;;;;;;;14.28;nan;98150.31;6066059;23;20192;-92
2022/11/23 10:10:00;;;;;;;5.93;3.28;;;;;;;13.79;nan;98150.81;5913094;24;20765;-91
2022/11/23 10:12:54;;;;;;;4.75;2.88;;;;;;;13.34;nan;98146.53;6066157;23;20998;-92
2022/11/23 10:15:44;;;;;;;6.72;2.13;;;;;;;12.92;nan;98147.03;6069438;23;20548;-92
2022/11/23 10:18:15;;;;;;;3.75;2.50;;;;;;;12.60;nan;98140.41;6070760;23;20149;-92
2022/11/23 10:20:52;;;;;;;3.80;2.53;;;;;;;12.39;nan;98137.19;6070155;23;20703;-92
2022/11/23 10:23:54;;;;;;;;;;;;;;;;;;;;;
2022/11/23 10:26:56;;;;;;;8.23;3.58;;;;;;;12.05;nan;98135.09;6066382;23;20177;-93
2022/11/23 10:29:30;;;;;;;7.93;3.53;;;;;;;11.90;nan;98132.09;6043516;23;20508;-92
2022/11/23 10:32:39;;;;;;;3.70;3.17;;;;;;;11.68;nan;98129.75;6070114;23;20612;-93
2022/11/23 10:35:47;;;;;;;;;;;;;;;;;;;;;
2022/11/23 10:38:43;;;;;;;3.47;2.20;;;;;;;11.45;nan;98124.81;6066940;23;20188;-93
2022/11/23 10:41:18;;;;;;;4.43;2.22;;;;;;;11.40;nan;98127.03;6072867;23;20520;-92
2022/11/23 10:43:57;;;;;;;4.10;1.73;;;;;;;11.29;nan;98128.00;6072208;23;20235;-92
2022/11/23 10:46:29;;;;;;;3.10;1.60;;;;;;;11.20;nan;98126.16;6072286;23;20199;-92
2022/11/23 10:49:32;;;;;;;1.80;1.70;;;;;;;11.13;nan;98119.81;6057064;23;20182;-93
2022/11/23 10:52:42;;;;;;;;;;;;;;;;;;;;;
2022/11/23 10:56:07;;;;;;;;;;;;;;;;;;;;;
2022/11/23 10:59:09;;;;;;;4.80;2.28;;;;;;;11.12;nan;98114.69;6070572;23;20173;-92
2022/11/23 11:01:37;;;;;;;5.95;1.65;;;;;;;11.14;nan;98105.69;6071880;23;20171;-92
2022/11/23 11:04:21;;;;;;;5.20;2.10;;;;;;;11.16;nan;98103.78;6070130;23;20396;-91
2022/11/23 11:07:30;;;;;;;3.92;1.65;;;;;;;11.18;nan;98101.84;6070241;23;20191;-92
2022/11/23 11:13:30;;;;;;;;;;;;;;;;;;;;;
2022/11/23 11:16:47;;;;;;;5.15;1.50;;;;;;;11.22;nan;98081.38;6067713;23;20153;-91
2022/11/23 11:19:27;;;;;;;3.17;1.80;;;;;;;11.28;nan;98080.81;6064920;23;20172;-92
2022/11/23 11:22:53;;;;;;;;;;;;;;;;;;;;;
2022/11/23 11:25:40;;;;;;;2.65;1.23;;;;;;;11.38;nan;98078.19;6059147;23;20626;-93
2022/11/23 11:28:55;;;;;;;2.95;1.35;;;;;;;11.40;nan;98077.06;6068153;23;20305;-91
2022/11/23 11:31:42;;;;;;;2.20;1.30;;;;;;;11.44;nan;98069.72;5971066;23;20183;-92
2022/11/23 11:34:45;;;;;;;1.95;1.20;;;;;;;11.47;nan;98074.69;6042673;23;20344;-92
2022/11/23 11:38:02;;;;;;;;;;;;;;;;;;;;;
2022/11/23 11:41:25;;;;;;;;;;;;;;;;;;;;;
2022/11/23 11:44:33;;;;;;;;;;;;;;;;;;;;;
2022/11/23 11:47:29;;;;;;;2.25;1.15;;;;;;;11.52;nan;98062.78;6062338;23;20201;-93
2022/11/23 11:50:01;;;;;;;1.45;1.00;;;;;;;11.60;nan;98054.19;6069303;23;20162;-92
2022/11/23 11:53:12;;;;;;;;;;;;;;;;;;;;;
2022/11/23 11:55:54;;;;;;;1.70;1.15;;;;;;;11.71;nan;98059.28;6086146;23;20487;-92
2022/11/23 11:58:57;;;;;;;3.00;1.23;;;;;;;11.79;nan;98057.75;6082003;23;20992;-91
2022/11/23 12:02:00;;;;;;;1.40;1.10;;;;;;;11.95;nan;98050.09;6069613;23;20223;-93
2022/11/23 12:04:47;;;;;;;1.73;1.33;;;;;;;12.06;nan;98049.91;6066340;23;20166;-93
2022/11/23 12:07:21;;;;;;;2.20;1.55;;;;;;;12.08;nan;98047.97;6069193;23;20323;-92
2022/11/23 12:09:56;;;;;;;2.85;1.20;;;;;;;12.10;nan;98050.47;6069094;23;20175;-92
2022/11/23 12:12:37;;;;;;;1.40;1.30;;;;;;;12.11;nan;98039.78;6074099;23;20157;-92
2022/11/23 12:15:23;;;;;;;2.85;1.33;;;;;;;12.18;nan;98038.22;6068658;23;20271;-91
2022/11/23 12:18:08;;;;;;;1.80;1.55;;;;;;;12.30;nan;98027.50;6040246;23;20885;-93
2022/11/23 12:20:53;;;;;;;9.82;4.78;;;;;;;12.39;nan;98032.72;6067804;23;20173;-93
2022/11/23 12:24:05;;;;;;;2.28;2.08;;;;;;;12.47;nan;98016.16;6069853;23;20159;-93
2022/11/23 12:26:56;;;;;;;;;;;;;;;;;;;;;
2022/11/23 12:29:48;;;;;;;0.93;0.70;;;;;;;12.65;nan;98012.72;6040203;23;20188;-93
2022/11/23 12:32:54;;;;;;;;;;;;;;;;;;;;;
2022/11/23 12:36:06;;;;;;;2.28;1.48;;;;;;;12.83;nan;98006.47;6056300;23;20171;-93
2022/11/23 12:39:14;;;;;;;1.00;0.70;;;;;;;12.87;nan;98000.91;6068737;23;20525;-93
2022/11/23 12:41:46;;;;;;;0.70;0.60;;;;;;;12.86;nan;97997.44;6033369;23;20174;-94
2022/11/23 12:44:48;;;;;;;;;;;;;;;;;;;;;
2022/11/23 12:48:11;;;;;;;2.03;1.10;;;;;;;12.80;nan;97993.59;6057823;23;20204;-93
2022/11/23 12:50:52;;;;;;;2.58;1.85;;;;;;;12.76;nan;97986.16;6063849;23;20262;-89
2022/11/23 12:53:28;;;;;;;3.75;1.45;;;;;;;12.72;nan;97990.03;6064990;23;20212;-88
2022/11/23 12:56:08;;;;;;;5.95;1.63;;;;;;;12.70;nan;97981.50;6065769;23;20551;-89
2022/11/23 12:58:36;;;;;;;1.67;0.85;;;;;;;12.69;nan;97974.53;6064032;23;20591;-89
2022/11/23 13:01:23;;;;;;;2.00;0.90;;;;;;;12.70;nan;97968.31;6064917;23;20171;-88
2022/11/23 13:04:27;;;;;;;7.97;2.67;;;;;;;12.67;nan;97974.72;6065169;23;20205;-88
2022/11/23 13:07:23;;;;;;;3.30;1.52;;;;;;;12.75;nan;97966.06;6064699;23;20267;-89
2022/11/23 13:10:01;;;;;;;1.42;1.00;;;;;;;12.88;nan;97947.19;6067595;23;20509;-88
2022/11/23 13:12:55;;;;;;;1.70;0.80;;;;;;;12.99;nan;97957.53;6069243;23;20170;-88
2022/11/23 13:15:32;;;;;;;1.23;1.10;;;;;;;13.10;nan;97951.19;6063315;23;20897;-88
2022/11/23 13:18:12;;;;;;;1.10;0.80;;;;;;;13.07;nan;97947.03;6038198;23;20915;-89
2022/11/23 13:20:58;;;;;;;0.70;0.60;;;;;;;13.03;nan;97950.94;6063163;23;20209;-89
2022/11/23 13:23:35;;;;;;;1.17;0.82;;;;;;;12.96;nan;97942.84;6039395;23;20659;-88
2022/11/23 13:26:20;;;;;;;2.17;1.00;;;;;;;12.90;nan;97935.53;6063940;23;20196;-89
2022/11/23 13:28:51;;;;;;;1.05;0.80;;;;;;;12.88;nan;97936.66;6039388;23;20149;-89
2022/11/23 13:31:23;;;;;;;2.65;0.80;;;;;;;12.89;nan;97933.88;6065059;23;20162;-88
2022/11/23 13:34:03;;;;;;;4.97;0.90;;;;;;;12.91;nan;97939.84;6064649;23;20229;-89
2022/11/23 13:36:41;;;;;;;2.55;1.13;;;;;;;12.95;nan;97925.38;6063468;23;20598;-88
2022/11/23 13:39:39;;;;;;;4.75;0.90;;;;;;;12.98;nan;97921.59;6064106;23;20853;-88
2022/11/23 13:46:27;;;;;;;;;;;;;;;;;;;;;
2022/11/23 13:54:02;;;;;;;;;;;;;;;;;;;;;
2022/11/23 13:57:24;;;;;;;;;;;;;;;;;;;;;
2022/11/23 14:00:41;;;;;;;1.60;1.00;;;;;;;13.13;nan;97891.06;6055500;23;20157;-93
2022/11/23 14:04:07;;;;;;;2.87;1.80;;;;;;;13.16;nan;97896.00;6027348;23;21031;-93
2022/11/23 14:07:01;;;;;;;2.13;1.60;;;;;;;13.12;nan;97899.94;6071981;23;20444;-93
2022/11/23 14:10:05;;;;;;;;;;;;;;;;;;;;;
2022/11/23 14:15:43;;;;;;;13.32;6.43;;;;;;;13.06;nan;97898.75;6020860;23;20188;-93
2022/11/23 14:19:08;;;;;;;7.40;5.15;;;;;;;13.04;nan;97898.09;6067078;23;20187;-93
2022/11/23 14:22:17;;;;;;;12.57;7.40;;;;;;;13.03;nan;97901.69;6067494;23;20285;-92
2022/11/23 14:25:47;;;;;;;10.80;6.13;;;;;;;13.05;nan;97891.00;6068630;23;20207;-93
2022/11/23 14:28:22;;;;;;;7.80;4.80;;;;;;;13.04;nan;97881.44;6056341;23;20196;-93
2022/11/23 14:31:39;;;;;;;;;;;;;;;;;;;;;
2022/11/23 14:34:34;;;;;;;14.85;8.57;;;;;;;13.00;nan;97875.66;6062344;23;20180;-93
2022/11/23 14:37:48;;;;;;;15.05;9.20;;;;;;;13.00;nan;97864.28;6065385;23;20580;-93
2022/11/23 14:41:01;;;;;;;13.25;8.35;;;;;;;12.97;nan;97873.34;6074526;23;20164;-93
2022/11/23 14:43:29;;;;;;;7.05;5.85;;;;;;;12.92;nan;97880.88;6070167;23;20183;-93
2022/11/23 14:46:13;;;;;;;;;;;;;;;;;;;;;
2022/11/23 14:48:47;;;;;;;9.05;4.95;;;;;;;12.87;nan;97884.97;6062470;23;20805;-94
2022/11/23 14:51:27;;;;;;;6.95;4.88;;;;;;;12.80;nan;97884.75;6065522;23;20169;-93
2022/11/23 14:54:32;;;;;;;;;;;;;;;;;;;;;
2022/11/23 14:57:06;;;;;;;13.68;6.63;;;;;;;12.70;nan;97899.81;6056578;23;20191;-93
2022/11/23 15:00:02;;;;;;;;;;;;;;;;;;;;;
2022/11/23 15:02:54;;;;;;;;;;;;;;;;;;;;;
2022/11/23 15:06:27;;;;;;;;;;;;;;;;;;;;;
2022/11/23 15:09:37;;;;;;;16.95;12.10;;;;;;;12.52;nan;97905.91;6067489;23;20177;-93
2022/11/23 15:15:46;;;;;;;;;;;;;;;;;;;;;
2022/11/23 15:18:50;;;;;;;;;;;;;;;;;;;;;
2022/11/23 15:21:53;;;;;;;13.07;8.82;;;;;;;12.35;nan;97933.09;6037648;23;20169;-93
2022/11/23 15:24:28;;;;;;;12.70;7.43;;;;;;;12.27;nan;97935.66;6039322;23;20215;-93
2022/11/23 15:27:48;;;;;;;;;;;;;;;;;;;;;
2022/11/23 15:34:16;;;;;;;8.73;6.45;;;;;;;11.90;nan;97960.25;6096386;23;20591;-83
2022/11/23 15:36:44;;;;;;;8.63;7.20;;;;;;;11.83;nan;97959.16;6095876;23;20247;-83
2022/11/23 15:39:19;;;;;;;10.52;8.00;;;;;;;11.77;nan;97984.22;6094178;23;20176;-84
2022/11/23 15:41:46;;;;;;;9.45;7.32;;;;;;;11.72;nan;97994.38;6090765;23;20258;-84
2022/11/23 15:44:22;;;;;;;14.85;11.10;;;;;;;11.61;nan;98002.41;6113890;23;20199;-84
2022/11/23 15:46:48;;;;;;;19.38;15.00;;;;;;;11.40;nan;98016.59;6116777;23;20303;-85
2022/11/23 15:49:15;;;;;;;17.30;12.20;;;;;;;11.18;nan;98035.28;6085733;23;20190;-88
2022/11/23 15:51:44;;;;;;;11.00;8.70;;;;;;;10.96;nan;98053.00;6114004;23;20410;-87
2022/11/23 15:54:15;;;;;;;5.55;3.83;;;;;;;10.78;nan;98057.31;6111424;23;20210;-86
2022/11/23 15:56:44;;;;;;;3.40;2.63;;;;;;;10.65;nan;98068.06;6112039;23;20176;-88
2022/11/23 15:59:37;;;;;;;4.53;2.65;;;;;;;10.54;nan;98066.38;6114885;23;20473;-84
2022/11/23 16:02:05;;;;;;;7.35;5.95;;;;;;;10.48;nan;98071.34;6112088;23;20188;-88
2022/11/23 16:04:42;;;;;;;12.02;8.25;;;;;;;10.45;nan;98077.69;6113856;23;20260;-86
2022/11/23 16:07:22;;;;;;;9.05;6.93;;;;;;;10.42;nan;98091.06;6112290;23;20209;-85
2022/11/23 16:10:07;;;;;;;13.40;9.73;;;;;;;10.39;nan;98093.97;6109356;23;20508;-86
2022/11/23 16:12:34;;;;;;;15.70;8.27;;;;;;;10.35;nan;98106.53;6111059;23;20548;-85
2022/11/23 16:15:36;;;;;;;10.05;6.05;;;;;;;10.32;nan;98114.69;6108533;23;20178;-85
2022/11/23 16:18:19;;;;;;;8.95;7.22;;;;;;;10.28;nan;98121.13;6109606;23;20231;-87
2022/11/23 16:20:52;;;;;;;6.97;5.53;;;;;;;10.27;nan;98123.88;6083562;23;20505;-88
2022/11/23 16:23:28;;;;;;;4.55;3.90;;;;;;;10.22;nan;98119.03;6110943;23;20184;-87
2022/11/23 16:25:58;;;;;;;10.43;8.18;;;;;;;10.12;nan;98112.88;6110852;23;20185;-88
2022/11/23 16:28:29;;;;;;;11.15;10.02;;;;;;;10.03;nan;98106.66;6112595;23;20165;-89
2022/11/23 16:30:56;;;;;;;15.00;11.73;;;;;;;9.98;nan;98124.56;6110064;23;20409;-86
2022/11/23 16:33:22;;;;;;;14.48;10.45;;;;;;;9.99;nan;98123.63;6110064;23;20192;-87
2022/11/23 16:35:48;;;;;;;7.30;6.33;;;;;;;10.02;nan;98138.25;6085349;23;20174;-86
2022/11/23 16:38:14;;;;;;;10.85;8.63;;;;;;;10.09;nan;98142.84;6112624;23;20508;-86
2022/11/23 16:40:41;;;;;;;20.05;14.00;;;;;;;10.13;nan;98149.50;6123718;23;20187;-87
2022/11/23 16:43:08;;;;;;;16.55;12.65;;;;;;;10.21;nan;98143.59;6119231;23;20188;-85
2022/11/23 16:45:38;;;;;;;18.88;14.25;;;;;;;10.31;nan;98159.41;6116361;23;20286;-84
2022/11/23 16:48:24;;;;;;;16.60;13.80;;;;;;;10.31;nan;98172.53;6116524;23;20555;-84
2022/11/23 16:50:50;;;;;;;16.45;12.00;;;;;;;10.26;nan;98180.78;6116299;23;20549;-84
2022/11/23 16:53:17;;;;;;;17.90;12.63;;;;;;;10.27;nan;98190.34;6115524;23;20187;-84
2022/11/23 16:55:43;;;;;;;21.13;16.13;;;;;;;10.32;nan;98182.09;6114790;23;20181;-85
2022/11/23 16:58:14;;;;;;;12.02;8.75;;;;;;;10.34;nan;98183.63;6114920;23;20183;-85
2022/11/23 17:00:39;;;;;;;8.23;6.22;;;;;;;10.31;nan;98183.03;6113322;23;20509;-86
2022/11/23 17:03:05;;;;;;;7.00;5.53;;;;;;;10.28;nan;98192.00;6111506;23;20185;-86
2022/11/23 17:05:30;;;;;;;6.77;6.07;;;;;;;10.27;nan;98195.59;6109597;23;20571;-88
2022/11/23 17:07:55;;;;;;;7.83;5.47;;;;;;;10.26;nan;98212.28;6110809;23;20193;-87
2022/11/23 17:10:21;;;;;;;11.73;9.47;;;;;;;10.24;nan;98222.06;6085709;23;20176;-86
2022/11/23 17:12:52;;;;;;;7.40;5.70;;;;;;;10.23;nan;98220.38;6111521;23;20193;-87
2022/11/23 17:15:21;;;;;;;9.85;6.43;;;;;;;10.22;nan;98221.34;6084933;23;20232;-87
2022/11/23 17:17:46;;;;;;;8.70;4.72;;;;;;;10.22;nan;98236.28;6110124;23;20183;-86
2022/11/23 17:20:12;;;;;;;9.03;6.37;;;;;;;10.19;nan;98235.56;6114571;23;20184;-86
2022/11/23 17:22:38;;;;;;;9.82;6.00;;;;;;;10.19;nan;98248.69;6084732;23;20201;-86
2022/11/23 17:25:06;;;;;;;7.20;4.60;;;;;;;10.18;nan;98252.28;6110643;23;20665;-86
2022/11/23 17:27:38;;;;;;;9.10;5.53;;;;;;;10.18;nan;98267.19;6059682;23;20241;-86
2022/11/23 17:30:14;;;;;;;12.18;8.43;;;;;;;10.13;nan;98270.19;6111947;23;20181;-87
2022/11/23 17:32:40;;;;;;;4.70;3.00;;;;;;;10.13;nan;98282.50;6111131;23;20285;-86
2022/11/23 17:35:05;;;;;;;4.63;3.30;;;;;;;10.13;nan;98288.56;6085847;23;20211;-86
2022/11/23 17:37:31;;;;;;;4.30;2.83;;;;;;;10.11;nan;98298.34;6110594;23;20172;-86
2022/11/23 17:39:56;;;;;;;16.47;12.57;;;;;;;10.09;nan;98308.13;6114232;23;20504;-86
2022/11/23 17:42:22;;;;;;;3.80;2.57;;;;;;;10.08;nan;98324.84;6117520;23;20199;-84
2022/11/23 17:44:47;;;;;;;6.07;3.97;;;;;;;10.11;nan;98336.88;6118961;23;20184;-85
2022/11/23 17:47:20;;;;;;;2.93;2.40;;;;;;;10.12;nan;98344.59;6123510;23;20290;-84
2022/11/23 17:49:45;;;;;;;4.60;3.78;;;;;;;10.16;nan;98350.44;6123394;23;20185;-84
2022/11/23 17:52:11;;;;;;;3.37;2.90;;;;;;;10.18;nan;98362.50;6123657;23;20364;-84
2022/11/23 17:54:39;;;;;;;3.53;3.27;;;;;;;10.19;nan;98368.56;6119285;23;20238;-84
2022/11/23 17:57:04;;;;;;;6.57;4.05;;;;;;;10.24;nan;98370.81;6122313;23;20405;-84
2022/11/23 17:59:30;;;;;;;4.40;3.23;;;;;;;10.25;nan;98381.19;6121570;23;20194;-85
2022/11/23 18:01:56;;;;;;;10.37;3.10;;;;;;;10.27;nan;98389.81;6094715;23;20195;-84
2022/11/23 18:04:22;;;;;;;4.55;3.35;;;;;;;10.28;nan;98396.69;6121375;23;20484;-84
2022/11/23 18:06:47;;;;;;;6.30;4.27;;;;;;;10.28;nan;98404.56;6123147;23;20203;-84
2022/11/23 18:09:12;;;;;;;4.60;2.90;;;;;;;10.28;nan;98407.19;6120495;23;20184;-84
2022/11/23 18:11:38;;;;;;;6.30;4.50;;;;;;;10.28;nan;98416.88;6122279;23;20226;-84
2022/11/23 18:14:03;;;;;;;5.27;3.83;;;;;;;10.29;nan;98432.50;6119291;23;20189;-84
2022/11/23 18:16:29;;;;;;;2.73;2.27;;;;;;;10.27;nan;98425.69;6096132;23;20182;-84
2022/11/23 18:18:54;;;;;;;2.50;2.23;;;;;;;10.27;nan;98428.31;6123440;23;20246;-84
2022/11/23 18:21:21;;;;;;;3.50;2.40;;;;;;;10.27;nan;98444.06;6119981;23;20197;-84
2022/11/23 18:23:47;;;;;;;6.50;4.95;;;;;;;10.26;nan;98445.84;6118826;23;20298;-86
2022/11/23 18:26:17;;;;;;;3.80;2.40;;;;;;;10.25;nan;98459.91;6119297;23;20195;-85
2022/11/23 18:28:44;;;;;;;2.58;2.38;;;;;;;10.28;nan;98470.19;6085405;23;20255;-85
2022/11/23 18:31:10;;;;;;;2.92;2.28;;;;;;;10.29;nan;98473.63;6114627;23;20178;-85
2022/11/23 18:33:36;;;;;;;2.30;1.93;;;;;;;10.30;nan;98486.66;6114484;23;20183;-85
2022/11/23 18:36:05;;;;;;;6.22;1.98;;;;;;;10.32;nan;98487.38;6113516;23;20497;-85
2022/11/23 18:38:33;;;;;;;3.95;2.38;;;;;;;10.31;nan;98484.84;6086368;23;20273;-85
2022/11/23 18:40:59;;;;;;;4.28;2.30;;;;;;;10.32;nan;98497.88;6113745;23;20271;-86
2022/11/23 18:43:27;;;;;;;2.70;2.33;;;;;;;10.30;nan;98507.66;6118927;23;20198;-85
2022/11/23 18:45:52;;;;;;;2.45;1.98;;;;;;;10.29;nan;98508.63;6114906;23;20769;-85
2022/11/23 18:48:18;;;;;;;4.60;2.40;;;;;;;10.32;nan;98518.88;6112225;23;20172;-85
2022/11/23 18:50:43;;;;;;;3.70;2.47;;;;;;;10.30;nan;98523.41;6110144;23;20228;-85
2022/11/23 18:53:09;;;;;;;4.10;2.33;;;;;;;10.32;nan;98531.16;6089168;23;20350;-86
2022/11/23 18:55:34;;;;;;;9.60;3.00;;;;;;;10.30;nan;98533.91;6116221;23;20684;-85
2022/11/23 18:58:00;;;;;;;4.47;3.80;;;;;;;10.27;nan;98534.16;6087896;23;20183;-86
2022/11/23 19:00:26;;;;;;;6.77;4.40;;;;;;;10.25;nan;98543.88;6116124;23;20682;-86
2022/11/23 19:02:57;;;;;;;5.72;4.97;;;;;;;10.22;nan;98554.63;6115572;23;20750;-86
2022/11/23 19:05:24;;;;;;;10.63;7.82;;;;;;;10.16;nan;98569.06;6117154;23;20187;-86
2022/11/23 19:07:50;;;;;;;9.45;7.68;;;;;;;10.14;nan;98564.91;6116498;23;20180;-85
2022/11/23 19:10:16;;;;;;;6.40;4.80;;;;;;;10.12;nan;98574.69;6115987;23;20178;-86
2022/11/23 19:12:42;;;;;;;3.25;2.95;;;;;;;10.11;nan;98575.66;6115192;23;20197;-85
2022/11/23 19:15:08;;;;;;;3.40;3.07;;;;;;;10.10;nan;98581.81;6114629;23;20250;-86
2022/11/23 19:17:35;;;;;;;7.88;3.10;;;;;;;10.08;nan;98583.75;6115716;23;20473;-87
2022/11/23 19:20:04;;;;;;;2.08;1.88;;;;;;;10.04;nan;98583.13;6111052;23;20591;-86
2022/11/23 19:22:32;;;;;;;3.30;2.58;;;;;;;10.01;nan;98588.63;6114811;23;20197;-86
2022/11/23 19:24:58;;;;;;;3.05;2.35;;;;;;;9.97;nan;98603.78;6116732;23;20261;-86
2022/11/23 19:27:23;;;;;;;4.53;3.50;;;;;;;9.93;nan;98612.00;6117053;23;20269;-86
2022/11/23 19:29:49;;;;;;;4.73;3.10;;;;;;;9.90;nan;98625.34;6090426;23;20574;-86
2022/11/23 19:32:14;;;;;;;5.97;4.27;;;;;;;9.85;nan;98623.06;6113123;23;20211;-86
2022/11/23 19:34:40;;;;;;;4.80;3.80;;;;;;;9.84;nan;98634.53;6115428;23;20782;-86
2022/11/23 19:37:05;;;;;;;6.00;3.43;;;;;;;9.81;nan;98639.19;6115551;23;20680;-86
2022/11/23 19:39:30;;;;;;;6.23;3.30;;;;;;;9.77;nan;98638.56;6117714;23;20187;-86
2022/11/23 19:41:56;;;;;;;5.10;4.33;;;;;;;9.75;nan;98661.47;6116289;23;20197;-87
2022/11/23 19:44:21;;;;;;;4.83;4.27;;;;;;;9.74;nan;98665.03;6116488;23;20190;-85
2022/11/23 19:46:47;;;;;;;5.40;4.00;;;;;;;9.73;nan;98665.97;6114192;23;20672;-86
2022/11/23 19:49:12;;;;;;;7.47;5.10;;;;;;;9.70;nan;98671.47;6087687;23;20186;-87
2022/11/23 19:51:37;;;;;;;4.40;3.80;;;;;;;9.64;nan;98667.50;6121816;23;20198;-87
2022/11/23 19:54:04;;;;;;;3.47;3.07;;;;;;;9.62;nan;98676.44;6118505;23;20191;-86
2022/11/23 19:56:30;;;;;;;4.00;3.63;;;;;;;9.64;nan;98698.13;6115166;23;20993;-87
2022/11/23 19:58:58;;;;;;;5.10;4.60;;;;;;;9.64;nan;98691.13;6115227;23;20432;-86
2022/11/23 20:01:27;;;;;;;7.57;6.07;;;;;;;9.65;nan;98697.19;6116684;23;20171;-86
2022/11/23 20:03:54;;;;;;;9.20;5.30;;;;;;;9.67;nan;98696.13;6113185;23;20179;-87
2022/11/23 20:06:23;;;;;;;4.13;2.92;;;;;;;9.70;nan;98700.31;6117548;23;20245;-86
2022/11/23 20:08:56;;;;;;;2.13;1.92;;;;;;;9.72;nan;98703.63;6115648;23;20261;-86
2022/11/23 20:11:26;;;;;;;3.15;1.70;;;;;;;9.72;nan;98711.50;6113447;23;20183;-84
2022/11/23 20:13:58;;;;;;;4.85;1.98;;;;;;;9.74;nan;98714.84;6113930;23;20501;-85
2022/11/23 20:16:25;;;;;;;2.03;1.85;;;;;;;9.76;nan;98715.56;6115334;23;20501;-85
2022/11/23 20:19:02;;;;;;;2.13;1.92;;;;;;;9.78;nan;98726.78;6113497;23;20179;-85
2022/11/23 20:21:30;;;;;;;2.83;1.90;;;;;;;9.78;nan;98723.34;6089627;23;20186;-87
2022/11/23 20:23:57;;;;;;;5.13;2.33;;;;;;;9.80;nan;98724.03;6087704;23;20171;-85
2022/11/23 20:26:24;;;;;;;4.80;4.18;;;;;;;9.81;nan;98733.59;6114985;23;20205;-87